createdAt,value
2022-09-25T00:01:00.791Z,19.73
2022-09-25T00:02:02.445Z,20.27
2022-09-25T00:03:04.384Z,21.00
2022-09-25T00:04:06.022Z,18.87
2022-09-25T00:05:08.136Z,21.97
2022-09-25T00:06:13.643Z,16.47
2022-09-25T00:07:15.492Z,18.93
2022-09-25T00:08:18.805Z,24.07
2022-09-25T00:09:23.331Z,24.10
2022-09-25T00:10:25.678Z,21.63
2022-09-25T00:11:32.867Z,23.50
2022-09-25T00:12:35.994Z,25.30
2022-09-25T00:13:38.385Z,26.40
2022-09-25T00:14:40.015Z,25.20
2022-09-25T00:15:50.228Z,28.10
2022-09-25T00:16:52.005Z,21.97
2022-09-25T00:17:53.770Z,20.37
2022-09-25T00:19:15.396Z,26.00
2022-09-25T00:20:20.038Z,23.50
2022-09-25T00:21:21.751Z,25.60
2022-09-25T00:22:28.105Z,24.30
2022-09-25T00:23:29.861Z,25.60
2022-09-25T00:24:34.383Z,20.33
2022-09-25T00:25:36.729Z,35.00
2022-09-25T00:26:42.993Z,29.57
2022-09-25T00:27:45.664Z,20.70
2022-09-25T00:28:47.792Z,17.27
2022-09-25T00:29:50.420Z,20.97
2022-09-25T00:30:52.267Z,15.80
2022-09-25T00:31:55.464Z,24.30
2022-09-25T00:32:57.169Z,20.07
2022-09-25T00:34:01.066Z,17.20
2022-09-25T00:35:03.016Z,14.90
2022-09-25T00:36:09.583Z,15.40
2022-09-25T00:37:11.208Z,20.97
2022-09-25T00:38:12.760Z,21.47
2022-09-25T00:39:14.393Z,15.43
2022-09-25T00:40:16.144Z,16.10
2022-09-25T00:41:20.408Z,20.07
2022-09-25T00:42:23.031Z,16.33
2022-09-25T00:43:39.505Z,19.83
2022-09-25T00:45:02.824Z,18.90
2022-09-25T00:46:11.665Z,14.33
2022-09-25T00:47:20.628Z,17.70
2022-09-25T00:48:22.539Z,14.00
2022-09-25T00:49:26.993Z,13.43
2022-09-25T00:50:31.440Z,12.43
2022-09-25T00:51:55.163Z,15.20
2022-09-25T00:53:05.501Z,13.43
2022-09-25T00:54:16.498Z,19.13
2022-09-25T00:55:19.058Z,12.63
2022-09-25T00:56:24.076Z,14.53
2022-09-25T00:57:31.350Z,10.60
2022-09-25T00:58:35.514Z,11.17
2022-09-25T00:59:41.421Z,10.80
2022-09-25T01:00:43.904Z,8.17
2022-09-25T01:01:46.729Z,12.97
2022-09-25T01:02:55.992Z,10.20
2022-09-25T01:03:57.832Z,13.50
2022-09-25T01:05:04.118Z,11.50
2022-09-25T01:06:10.473Z,12.10
2022-09-25T01:07:15.857Z,8.67
2022-09-25T01:08:22.801Z,9.37
2022-09-25T01:09:33.642Z,11.83
2022-09-25T01:10:45.544Z,9.60
2022-09-25T01:11:47.796Z,9.10
2022-09-25T01:12:51.228Z,21.63
2022-09-25T01:13:56.852Z,11.70
2022-09-25T01:14:58.566Z,8.73
2022-09-25T01:16:25.165Z,9.53
2022-09-25T01:17:47.402Z,12.87
2022-09-25T01:19:02.555Z,15.73
2022-09-25T01:20:23.334Z,9.20
2022-09-25T01:21:44.611Z,9.30
2022-09-25T01:22:55.676Z,10.13
2022-09-25T01:24:24.423Z,9.63
2022-09-25T01:25:47.850Z,9.93
2022-09-25T01:27:14.457Z,9.77
2022-09-25T01:28:43.553Z,8.90
2022-09-25T01:30:08.790Z,10.10
2022-09-25T01:31:24.887Z,9.90
2022-09-25T01:32:35.136Z,9.77
2022-09-25T01:33:48.982Z,12.80
2022-09-25T01:35:03.033Z,9.80
2022-09-25T01:36:14.915Z,10.83
2022-09-25T01:37:30.003Z,8.70
2022-09-25T01:38:40.722Z,9.27
2022-09-25T01:39:47.244Z,7.80
2022-09-25T01:40:48.901Z,8.53
2022-09-25T01:42:16.425Z,9.27
2022-09-25T01:43:23.567Z,8.07
2022-09-25T01:44:36.470Z,8.30
2022-09-25T01:45:55.142Z,8.97
2022-09-25T01:47:04.962Z,11.30
2022-09-25T01:48:11.555Z,8.60
2022-09-25T01:49:27.052Z,11.00
2022-09-25T01:50:36.447Z,8.90
2022-09-25T01:51:49.994Z,8.50
2022-09-25T01:52:54.891Z,9.90
2022-09-25T01:54:00.654Z,10.30
2022-09-25T01:55:18.859Z,10.43
2022-09-25T01:56:31.605Z,21.67
2022-09-25T01:57:49.293Z,10.27
2022-09-25T01:58:57.807Z,8.87
2022-09-25T02:00:21.842Z,10.97
2022-09-25T02:01:29.584Z,13.80
2022-09-25T02:02:36.278Z,9.40
2022-09-25T02:03:44.313Z,8.90
2022-09-25T02:04:53.324Z,9.70
2022-09-25T02:05:59.843Z,7.40
2022-09-25T02:07:08.046Z,12.77
2022-09-25T02:08:24.635Z,12.40
2022-09-25T02:09:34.602Z,10.13
2022-09-25T02:10:49.209Z,15.70
2022-09-25T02:11:56.316Z,11.70
2022-09-25T02:13:05.582Z,11.37
2022-09-25T02:14:21.793Z,10.90
2022-09-25T02:15:29.869Z,8.80
2022-09-25T02:16:37.604Z,14.73
2022-09-25T02:18:06.973Z,9.17
2022-09-25T02:19:30.356Z,9.70
2022-09-25T02:20:36.332Z,9.10
2022-09-25T02:22:12.954Z,9.77
2022-09-25T02:23:26.953Z,10.10
2022-09-25T02:24:53.073Z,8.60
2022-09-25T02:26:06.672Z,11.17
2022-09-25T02:27:17.197Z,12.23
2022-09-25T02:28:19.338Z,9.43
2022-09-25T02:29:21.094Z,13.50
2022-09-25T02:30:22.805Z,8.73
2022-09-25T02:31:35.784Z,11.07
2022-09-25T02:32:37.673Z,9.23
2022-09-25T02:33:39.451Z,9.93
2022-09-25T02:34:42.052Z,8.70
2022-09-25T02:35:43.710Z,8.20
2022-09-25T02:36:48.234Z,9.80
2022-09-25T02:37:49.967Z,10.03
2022-09-25T02:38:53.217Z,12.70
2022-09-25T02:39:58.244Z,11.13
2022-09-25T02:41:28.611Z,10.87
2022-09-25T02:43:04.172Z,16.97
2022-09-25T02:44:31.032Z,11.83
2022-09-25T02:45:40.933Z,9.07
2022-09-25T02:47:03.365Z,11.13
2022-09-25T02:48:18.217Z,12.33
2022-09-25T02:49:47.707Z,10.23
2022-09-25T02:50:52.449Z,15.33
2022-09-25T02:52:22.038Z,9.50
2022-09-25T02:54:04.056Z,8.43
2022-09-25T02:55:25.487Z,8.73
2022-09-25T02:56:45.988Z,10.17
2022-09-25T02:58:01.351Z,10.33
2022-09-25T02:59:09.088Z,9.33
2022-09-25T03:00:11.903Z,9.70
2022-09-25T03:01:17.504Z,9.63
2022-09-25T03:02:21.406Z,8.87
2022-09-25T03:03:26.383Z,8.90
2022-09-25T03:04:29.747Z,9.83
2022-09-25T03:05:31.905Z,9.63
2022-09-25T03:06:33.691Z,12.10
2022-09-25T03:07:55.646Z,8.83
2022-09-25T03:08:59.300Z,14.33
2022-09-25T03:10:03.558Z,9.10
2022-09-25T03:11:17.613Z,9.77
2022-09-25T03:12:19.223Z,8.83
2022-09-25T03:13:32.116Z,9.23
2022-09-25T03:14:33.640Z,9.50
2022-09-25T03:15:37.446Z,11.80
2022-09-25T03:17:06.517Z,8.83
2022-09-25T03:18:09.107Z,9.03
2022-09-25T03:19:10.813Z,10.23
2022-09-25T03:20:12.986Z,12.03
2022-09-25T03:21:15.229Z,13.20
2022-09-25T03:22:16.811Z,8.10
2022-09-25T03:23:18.753Z,8.23
2022-09-25T03:24:20.788Z,10.93
2022-09-25T03:25:22.718Z,11.13
2022-09-25T03:26:25.529Z,9.90
2022-09-25T03:27:28.806Z,9.20
2022-09-25T03:28:30.728Z,12.80
2022-09-25T03:29:41.762Z,13.20
2022-09-25T03:30:43.919Z,8.93
2022-09-25T03:31:45.650Z,8.70
2022-09-25T03:32:53.197Z,8.90
2022-09-25T03:33:54.753Z,9.07
2022-09-25T03:34:57.448Z,10.33
2022-09-25T03:36:10.069Z,12.40
2022-09-25T03:37:11.795Z,10.83
2022-09-25T03:38:13.436Z,9.47
2022-09-25T03:39:18.077Z,8.63
2022-09-25T03:40:20.508Z,9.17
2022-09-25T03:41:22.828Z,8.97
2022-09-25T03:42:28.095Z,9.43
2022-09-25T03:43:33.667Z,9.13
2022-09-25T03:44:35.195Z,9.07
2022-09-25T03:45:37.018Z,10.40
2022-09-25T03:46:39.022Z,10.83
2022-09-25T03:47:40.668Z,10.70
2022-09-25T03:48:44.617Z,12.60
2022-09-25T03:49:46.300Z,13.20
2022-09-25T03:50:50.501Z,9.07
2022-09-25T03:51:58.783Z,10.37
2022-09-25T03:53:03.520Z,8.73
2022-09-25T03:54:05.260Z,7.67
2022-09-25T03:55:07.531Z,8.80
2022-09-25T03:56:13.051Z,8.63
2022-09-25T03:57:17.377Z,8.40
2022-09-25T03:58:19.610Z,9.07
2022-09-25T03:59:21.161Z,8.60
2022-09-25T04:00:24.089Z,8.27
2022-09-25T04:01:28.905Z,9.90
2022-09-25T04:02:30.804Z,9.70
2022-09-25T04:03:34.119Z,13.60
2022-09-25T04:04:37.572Z,14.17
2022-09-25T04:05:39.602Z,7.90
2022-09-25T04:06:41.171Z,10.43
2022-09-25T04:07:42.734Z,8.80
2022-09-25T04:08:45.829Z,7.73
2022-09-25T04:09:47.420Z,7.17
2022-09-25T04:10:49.258Z,7.87
2022-09-25T04:11:51.124Z,8.60
2022-09-25T04:12:54.464Z,8.20
2022-09-25T04:13:57.061Z,9.53
2022-09-25T04:15:02.461Z,6.90
2022-09-25T04:16:11.763Z,7.90
2022-09-25T04:17:13.424Z,6.93
2022-09-25T04:18:15.502Z,7.40
2022-09-25T04:19:17.430Z,10.47
2022-09-25T04:20:19.736Z,9.50
2022-09-25T04:21:21.318Z,10.90
2022-09-25T04:22:22.978Z,7.63
2022-09-25T04:23:27.083Z,9.50
2022-09-25T04:24:47.451Z,9.70
2022-09-25T04:25:49.720Z,7.30
2022-09-25T04:26:56.023Z,6.50
2022-09-25T04:27:58.426Z,11.93
2022-09-25T04:29:01.510Z,9.80
2022-09-25T04:30:05.298Z,8.83
2022-09-25T04:31:08.031Z,14.40
2022-09-25T04:32:28.055Z,10.90
2022-09-25T04:33:48.305Z,7.97
2022-09-25T04:34:50.345Z,7.03
2022-09-25T04:35:51.963Z,7.20
2022-09-25T04:36:53.708Z,9.80
2022-09-25T04:37:58.814Z,7.17
2022-09-25T04:39:00.559Z,11.13
2022-09-25T04:40:02.385Z,7.03
2022-09-25T04:41:04.290Z,7.23
2022-09-25T04:42:06.621Z,10.07
2022-09-25T04:43:08.287Z,7.70
2022-09-25T04:44:09.778Z,6.93
2022-09-25T04:45:11.683Z,8.87
2022-09-25T04:46:20.048Z,9.23
2022-09-25T04:47:24.938Z,7.47
2022-09-25T04:48:26.716Z,7.73
2022-09-25T04:49:31.385Z,8.00
2022-09-25T04:50:36.704Z,7.50
2022-09-25T04:51:41.314Z,7.63
2022-09-25T04:52:42.857Z,7.67
2022-09-25T04:53:51.910Z,7.53
2022-09-25T04:54:53.643Z,12.43
2022-09-25T04:56:01.287Z,6.53
2022-09-25T04:57:04.236Z,6.57
2022-09-25T04:58:06.123Z,10.33
2022-09-25T04:59:07.786Z,9.50
2022-09-25T05:00:10.798Z,8.43
2022-09-25T05:01:13.066Z,7.43
2022-09-25T05:02:15.059Z,7.60
2022-09-25T05:03:19.823Z,8.73
2022-09-25T05:04:21.532Z,7.40
2022-09-25T05:05:28.298Z,7.27
2022-09-25T05:06:32.734Z,6.80
2022-09-25T05:07:35.590Z,7.23
2022-09-25T05:08:44.359Z,7.43
2022-09-25T05:09:45.949Z,7.00
2022-09-25T05:10:50.266Z,6.30
2022-09-25T05:11:55.647Z,9.10
2022-09-25T05:13:02.458Z,9.07
2022-09-25T05:14:04.353Z,9.63
2022-09-25T05:15:06.750Z,10.47
2022-09-25T05:16:10.163Z,14.83
2022-09-25T05:17:12.482Z,8.10
2022-09-25T05:18:20.802Z,8.17
2022-09-25T05:19:22.530Z,10.70
2022-09-25T05:20:24.203Z,15.63
2022-09-25T05:21:26.019Z,7.90
2022-09-25T05:22:27.682Z,7.47
2022-09-25T05:23:32.300Z,11.57
2022-09-25T05:24:34.965Z,9.43
2022-09-25T05:25:36.561Z,8.30
2022-09-25T05:26:38.376Z,7.20
2022-09-25T05:28:29.119Z,8.50
2022-09-25T05:29:31.514Z,7.60
2022-09-25T05:30:35.132Z,12.50
2022-09-25T05:31:38.288Z,9.80
2022-09-25T05:32:39.988Z,8.60
2022-09-25T05:33:41.767Z,16.90
2022-09-25T05:34:43.319Z,15.30
2022-09-25T05:35:45.223Z,8.00
2022-09-25T05:36:46.971Z,9.73
2022-09-25T05:37:48.677Z,7.70
2022-09-25T05:38:54.122Z,7.30
2022-09-25T05:39:57.098Z,7.80
2022-09-25T05:41:05.615Z,7.73
2022-09-25T05:42:07.370Z,8.30
2022-09-25T05:43:09.052Z,8.07
2022-09-25T05:44:11.458Z,7.20
2022-09-25T05:45:14.200Z,7.60
2022-09-25T05:46:16.406Z,8.07
2022-09-25T05:47:18.845Z,8.00
2022-09-25T05:48:20.531Z,7.73
2022-09-25T05:49:23.408Z,9.10
2022-09-25T05:50:25.390Z,8.17
2022-09-25T05:51:27.105Z,6.77
2022-09-25T05:52:29.701Z,8.73
2022-09-25T05:53:33.990Z,7.13
2022-09-25T05:54:35.725Z,10.43
2022-09-25T05:55:39.500Z,9.83
2022-09-25T05:56:41.182Z,10.60
2022-09-25T05:57:42.929Z,14.73
2022-09-25T05:58:45.054Z,10.37
2022-09-25T05:59:49.844Z,12.57
2022-09-25T06:00:52.055Z,8.83
2022-09-25T06:01:54.858Z,6.80
2022-09-25T06:02:57.546Z,15.40
2022-09-25T06:03:59.213Z,6.67
2022-09-25T06:05:00.867Z,10.03
2022-09-25T06:06:03.199Z,12.23
2022-09-25T06:07:05.383Z,7.60
2022-09-25T06:08:07.364Z,9.00
2022-09-25T06:09:09.049Z,12.40
2022-09-25T06:10:11.488Z,7.13
2022-09-25T06:11:13.184Z,10.97
2022-09-25T06:12:14.877Z,11.50
2022-09-25T06:13:16.552Z,7.23
2022-09-25T06:14:20.250Z,7.97
2022-09-25T06:15:29.187Z,7.53
2022-09-25T06:16:32.757Z,6.87
2022-09-25T06:17:34.624Z,10.33
2022-09-25T06:18:40.687Z,6.97
2022-09-25T06:19:42.722Z,6.60
2022-09-25T06:20:44.514Z,7.63
2022-09-25T06:21:48.915Z,7.90
2022-09-25T06:23:00.830Z,7.63
2022-09-25T06:24:02.540Z,9.10
2022-09-25T06:25:07.488Z,7.03
2022-09-25T06:26:10.271Z,7.90
2022-09-25T06:27:11.877Z,8.97
2022-09-25T06:28:13.445Z,8.83
2022-09-25T06:29:15.155Z,18.20
2022-09-25T06:30:20.243Z,8.90
2022-09-25T06:31:22.125Z,8.13
2022-09-25T06:32:23.944Z,10.77
2022-09-25T06:33:25.621Z,6.80
2022-09-25T06:34:28.363Z,6.50
2022-09-25T06:35:30.441Z,6.33
2022-09-25T06:36:32.573Z,12.90
2022-09-25T06:37:34.246Z,6.60
2022-09-25T06:38:35.988Z,6.73
2022-09-25T06:39:38.659Z,7.43
2022-09-25T06:40:46.940Z,6.53
2022-09-25T06:41:48.698Z,6.40
2022-09-25T06:42:56.027Z,5.90
2022-09-25T06:43:58.338Z,6.40
2022-09-25T06:44:59.857Z,7.80
2022-09-25T06:46:03.456Z,6.80
2022-09-25T06:47:05.496Z,7.60
2022-09-25T06:48:16.818Z,18.37
2022-09-25T06:49:21.763Z,7.80
2022-09-25T06:50:31.592Z,7.77
2022-09-25T06:51:35.209Z,6.43
2022-09-25T06:52:43.409Z,6.40
2022-09-25T06:53:48.513Z,10.33
2022-09-25T06:54:54.168Z,8.70
2022-09-25T06:56:03.072Z,8.03
2022-09-25T06:57:09.851Z,6.37
2022-09-25T06:58:14.672Z,16.73
2022-09-25T06:59:17.757Z,6.63
2022-09-25T07:00:22.217Z,7.07
2022-09-25T07:01:24.189Z,9.40
2022-09-25T07:02:47.698Z,6.93
2022-09-25T07:03:49.859Z,6.90
2022-09-25T07:04:54.554Z,7.03
2022-09-25T07:06:10.033Z,8.90
2022-09-25T07:07:11.597Z,8.13
2022-09-25T07:08:18.534Z,9.07
2022-09-25T07:09:20.313Z,9.10
2022-09-25T07:10:25.037Z,8.60
2022-09-25T07:11:28.711Z,11.33
2022-09-25T07:12:31.133Z,9.63
2022-09-25T07:13:38.528Z,11.50
2022-09-25T07:14:43.184Z,11.30
2022-09-25T07:15:54.571Z,10.37
2022-09-25T07:16:56.168Z,12.47
2022-09-25T07:18:00.492Z,10.40
2022-09-25T07:19:04.195Z,15.47
2022-09-25T07:20:08.095Z,16.27
2022-09-25T07:21:19.185Z,10.07
2022-09-25T07:22:24.200Z,12.70
2022-09-25T07:23:25.846Z,16.03
2022-09-25T07:24:27.586Z,12.20
2022-09-25T07:25:29.580Z,11.77
2022-09-25T07:26:34.062Z,12.60
2022-09-25T07:27:36.679Z,12.93
2022-09-25T07:28:39.533Z,11.90
2022-09-25T07:29:41.144Z,13.23
2022-09-25T07:30:43.650Z,10.53
2022-09-25T07:31:48.636Z,14.70
2022-09-25T07:32:50.288Z,11.70
2022-09-25T07:33:55.057Z,15.33
2022-09-25T07:34:56.800Z,15.10
2022-09-25T07:36:01.300Z,18.23
2022-09-25T07:37:03.031Z,16.97
2022-09-25T07:38:07.554Z,19.80
2022-09-25T07:39:11.761Z,16.33
2022-09-25T07:40:16.799Z,19.00
2022-09-25T07:41:22.334Z,20.60
2022-09-25T07:42:23.975Z,15.77
2022-09-25T07:43:25.558Z,17.57
2022-09-25T07:44:30.193Z,15.60
2022-09-25T07:45:35.950Z,17.67
2022-09-25T07:46:42.906Z,18.93
2022-09-25T07:47:44.670Z,17.83
2022-09-25T07:48:50.066Z,15.80
2022-09-25T07:49:54.590Z,21.63
2022-09-25T07:51:00.799Z,19.17
2022-09-25T07:52:05.909Z,20.00
2022-09-25T07:53:07.667Z,21.00
2022-09-25T07:54:09.356Z,20.00
2022-09-25T07:55:11.138Z,21.10
2022-09-25T07:56:12.906Z,22.37
2022-09-25T07:57:15.417Z,22.30
2022-09-25T07:58:22.675Z,21.87
2022-09-25T07:59:24.488Z,18.30
2022-09-25T08:00:29.380Z,25.00
2022-09-25T08:01:30.959Z,20.33
2022-09-25T08:02:36.022Z,18.80
2022-09-25T08:03:38.011Z,18.33
2022-09-25T08:04:40.259Z,24.13
2022-09-25T08:05:47.142Z,18.37
2022-09-25T08:06:49.056Z,21.30
2022-09-25T08:07:52.758Z,24.37
2022-09-25T08:08:54.419Z,17.40
2022-09-25T08:09:56.250Z,17.03
2022-09-25T08:11:03.094Z,22.00
2022-09-25T08:12:04.728Z,24.43
2022-09-25T08:13:09.702Z,20.13
2022-09-25T08:14:16.794Z,25.50
2022-09-25T08:15:21.113Z,19.87
2022-09-25T08:16:24.443Z,18.50
2022-09-25T08:17:31.312Z,22.93
2022-09-25T08:18:33.461Z,21.23
2022-09-25T08:19:35.470Z,25.60
2022-09-25T08:20:42.528Z,21.80
2022-09-25T08:21:48.229Z,26.10
2022-09-25T08:22:53.832Z,18.60
2022-09-25T08:23:56.779Z,19.60
2022-09-25T08:24:58.318Z,17.73
2022-09-25T08:26:45.301Z,19.33
2022-09-25T08:27:49.875Z,23.70
2022-09-25T08:28:59.196Z,26.60
2022-09-25T08:30:00.768Z,25.23
2022-09-25T08:31:04.228Z,26.87
2022-09-25T08:32:08.109Z,24.33
2022-09-25T08:33:15.421Z,20.77
2022-09-25T08:35:41.230Z,22.07
2022-09-25T08:36:46.020Z,23.10
2022-09-25T08:37:48.885Z,22.13
2022-09-25T08:38:58.635Z,22.30
2022-09-25T08:40:00.771Z,21.83
2022-09-25T08:41:08.819Z,23.53
2022-09-25T08:42:22.252Z,21.63
2022-09-25T08:43:29.685Z,24.70
2022-09-25T08:44:36.986Z,20.90
2022-09-25T08:46:02.742Z,29.53
2022-09-25T08:47:27.307Z,18.90
2022-09-25T08:49:00.352Z,22.63
2022-09-25T08:50:15.927Z,24.20
2022-09-25T08:51:17.588Z,23.20
2022-09-25T08:52:22.919Z,39.13
2022-09-25T08:53:25.585Z,23.50
2022-09-25T08:54:31.026Z,21.93
2022-09-25T08:55:58.813Z,27.43
2022-09-25T08:57:08.684Z,30.10
2022-09-25T08:58:24.811Z,22.63
2022-09-25T08:59:34.414Z,24.10
2022-09-25T09:00:38.812Z,22.13
2022-09-25T09:02:12.050Z,28.03
2022-09-25T09:03:15.624Z,24.73
2022-09-25T09:04:34.399Z,22.90
2022-09-25T09:05:41.213Z,21.83
2022-09-25T09:06:43.696Z,26.60
2022-09-25T09:07:50.054Z,21.47
2022-09-25T09:09:08.374Z,19.07
2022-09-25T09:10:33.696Z,22.40
2022-09-25T09:12:07.356Z,25.43
2022-09-25T09:13:35.665Z,19.60
2022-09-25T09:14:43.471Z,20.87
2022-09-25T09:16:10.748Z,20.70
2022-09-25T09:17:27.553Z,22.47
2022-09-25T09:18:31.530Z,19.40
2022-09-25T09:19:33.524Z,21.07
2022-09-25T09:20:51.751Z,25.50
2022-09-25T09:22:15.167Z,22.63
2022-09-25T09:23:20.279Z,23.20
2022-09-25T09:24:48.158Z,33.50
2022-09-25T09:26:20.206Z,22.53
2022-09-25T09:27:36.560Z,22.83
2022-09-25T09:29:08.178Z,26.80
2022-09-25T09:30:20.194Z,23.63
2022-09-25T09:31:33.870Z,26.93
2022-09-25T09:33:03.186Z,28.73
2022-09-25T09:35:00.911Z,24.73
2022-09-25T09:36:05.261Z,28.43
2022-09-25T09:37:23.809Z,25.57
2022-09-25T09:38:59.227Z,27.53
2022-09-25T09:40:24.283Z,25.20
2022-09-25T09:41:59.243Z,24.10
2022-09-25T09:43:37.256Z,26.40
2022-09-25T09:45:24.269Z,22.93
2022-09-25T09:46:34.709Z,28.40
2022-09-25T09:48:00.909Z,29.73
2022-09-25T09:49:21.474Z,27.27
2022-09-25T09:50:26.134Z,26.47
2022-09-25T09:51:49.411Z,31.90
2022-09-25T09:52:59.896Z,32.10
2022-09-25T09:54:14.083Z,30.70
2022-09-25T09:55:38.891Z,36.73
2022-09-25T09:56:45.172Z,27.50
2022-09-25T09:57:57.488Z,26.50
2022-09-25T09:59:15.907Z,29.23
2022-09-25T10:00:20.687Z,33.23
2022-09-25T10:01:40.914Z,33.10
2022-09-25T10:02:45.386Z,28.60
2022-09-25T10:04:02.932Z,25.80
2022-09-25T10:05:14.870Z,31.10
2022-09-25T10:06:22.417Z,35.30
2022-09-25T10:07:27.845Z,37.00
2022-09-25T10:08:30.198Z,27.03
2022-09-25T10:09:32.242Z,30.53
2022-09-25T10:10:39.842Z,30.90
2022-09-25T10:11:43.209Z,27.57
2022-09-25T10:12:53.219Z,31.90
2022-09-25T10:14:00.067Z,28.53
2022-09-25T10:15:05.971Z,33.90
2022-09-25T10:16:21.588Z,29.50
2022-09-25T10:17:24.264Z,29.70
2022-09-25T10:18:31.836Z,30.67
2022-09-25T10:19:45.337Z,30.33
2022-09-25T10:20:56.624Z,27.47
2022-09-25T10:22:16.359Z,31.47
2022-09-25T10:23:40.782Z,25.73
2022-09-25T10:24:58.593Z,25.73
2022-09-25T10:26:00.765Z,44.90
2022-09-25T10:27:28.171Z,29.50
2022-09-25T10:28:34.304Z,29.50
2022-09-25T10:29:36.009Z,31.40
2022-09-25T10:30:46.313Z,24.80
2022-09-25T10:31:57.190Z,25.83
2022-09-25T10:33:13.322Z,23.23
2022-09-25T10:34:17.999Z,23.30
2022-09-25T10:35:28.661Z,26.70
2022-09-25T10:36:44.791Z,30.57
2022-09-25T10:37:51.304Z,22.73
2022-09-25T10:39:08.388Z,26.13
2022-09-25T10:40:39.314Z,26.07
2022-09-25T10:41:49.856Z,25.80
2022-09-25T10:43:04.727Z,30.20
2022-09-25T10:44:21.935Z,21.17
2022-09-25T10:45:26.426Z,25.23
2022-09-25T10:46:56.190Z,28.07
2022-09-25T10:48:16.442Z,19.00
2022-09-25T10:49:45.884Z,22.90
2022-09-25T10:51:09.838Z,28.33
2022-09-25T10:52:22.955Z,22.13
2022-09-25T10:53:34.883Z,21.27
2022-09-25T10:54:44.480Z,21.20
2022-09-25T10:55:51.697Z,27.37
2022-09-25T10:56:53.743Z,22.00
2022-09-25T10:58:05.688Z,25.93
2022-09-25T10:59:22.003Z,29.23
2022-09-25T11:00:29.388Z,26.30
2022-09-25T11:01:42.889Z,23.43
2022-09-25T11:02:46.799Z,24.47
2022-09-25T11:03:58.934Z,24.60
2022-09-25T11:05:05.978Z,25.07
2022-09-25T11:06:20.965Z,26.20
2022-09-25T11:07:27.493Z,26.23
2022-09-25T11:08:35.629Z,20.67
2022-09-25T11:09:44.658Z,28.73
2022-09-25T11:11:02.170Z,27.67
2022-09-25T11:12:13.181Z,26.37
2022-09-25T11:13:25.659Z,24.00
2022-09-25T11:14:36.022Z,23.73
2022-09-25T11:15:39.190Z,26.17
2022-09-25T11:16:53.674Z,32.93
2022-09-25T11:17:57.348Z,27.23
2022-09-25T11:19:31.997Z,32.63
2022-09-25T11:20:33.829Z,31.07
2022-09-25T11:21:49.180Z,29.67
2022-09-25T11:23:09.014Z,28.67
2022-09-25T11:24:16.741Z,33.80
2022-09-25T11:25:27.045Z,35.03
2022-09-25T11:26:38.326Z,32.70
2022-09-25T11:28:07.498Z,31.40
2022-09-25T11:29:19.123Z,32.67
2022-09-25T11:30:22.702Z,27.23
2022-09-25T11:31:39.528Z,25.53
2022-09-25T11:32:53.532Z,27.13
2022-09-25T11:34:01.291Z,27.50
2022-09-25T11:35:14.991Z,26.03
2022-09-25T11:36:27.690Z,27.70
2022-09-25T11:37:50.037Z,25.80
2022-09-25T11:39:15.536Z,28.10
2022-09-25T11:40:42.192Z,25.20
2022-09-25T11:42:09.841Z,29.67
2022-09-25T11:43:16.886Z,28.17
2022-09-25T11:44:38.746Z,25.40
2022-09-25T11:45:47.569Z,31.00
2022-09-25T11:46:54.894Z,30.07
2022-09-25T11:48:10.647Z,27.33
2022-09-25T11:49:24.741Z,46.93
2022-09-25T11:50:40.137Z,21.97
2022-09-25T11:52:09.160Z,31.93
2022-09-25T11:53:25.757Z,29.13
2022-09-25T11:55:00.430Z,29.23
2022-09-25T11:56:49.620Z,28.73
2022-09-25T11:58:15.920Z,28.40
2022-09-25T11:59:32.642Z,32.37
2022-09-25T12:00:37.821Z,39.53
2022-09-25T12:01:46.541Z,32.93
2022-09-25T12:02:57.157Z,29.73
2022-09-25T12:04:12.771Z,29.67
2022-09-25T12:05:52.846Z,28.40
2022-09-25T12:07:24.431Z,40.10
2022-09-25T12:08:50.623Z,23.80
2022-09-25T12:10:12.257Z,20.47
2022-09-25T12:11:45.879Z,22.97
2022-09-25T12:13:12.653Z,24.23
2022-09-25T12:14:35.550Z,23.87
2022-09-25T12:16:14.633Z,21.13
2022-09-25T12:17:19.154Z,21.33
2022-09-25T12:18:53.055Z,22.03
2022-09-25T12:20:01.311Z,26.40
2022-09-25T12:21:12.020Z,25.70
2022-09-25T12:22:27.454Z,18.17
2022-09-25T12:23:34.526Z,18.30
2022-09-25T12:24:40.084Z,18.17
2022-09-25T12:25:49.508Z,17.83
2022-09-25T12:27:14.106Z,23.50
2022-09-25T12:28:34.499Z,20.47
2022-09-25T12:29:46.407Z,17.43
2022-09-25T12:31:09.851Z,18.50
2022-09-25T12:32:32.925Z,21.10
2022-09-25T12:33:44.608Z,27.37
2022-09-25T12:35:15.936Z,17.73
2022-09-25T12:36:24.554Z,15.83
2022-09-25T12:37:46.377Z,20.20
2022-09-25T12:38:55.541Z,17.67
2022-09-25T12:40:00.300Z,18.63
2022-09-25T12:41:07.408Z,13.73
2022-09-25T12:42:24.521Z,14.27
2022-09-25T12:43:41.166Z,11.80
2022-09-25T12:44:59.780Z,14.40
2022-09-25T12:46:10.576Z,14.00
2022-09-25T12:47:37.641Z,17.30
2022-09-25T12:49:04.440Z,12.63
2022-09-25T12:50:18.396Z,13.60
2022-09-25T12:51:34.081Z,13.70
2022-09-25T12:52:42.223Z,17.50
2022-09-25T12:53:43.891Z,11.73
2022-09-25T12:55:13.825Z,14.03
2022-09-25T12:56:27.513Z,10.80
2022-09-25T12:57:35.198Z,13.40
2022-09-25T12:59:11.044Z,15.70
2022-09-25T13:00:48.235Z,12.63
2022-09-25T13:02:12.340Z,13.27
2022-09-25T13:03:32.653Z,11.97
2022-09-25T13:04:48.888Z,9.53
2022-09-25T13:06:03.513Z,14.23
2022-09-25T13:07:23.583Z,14.30
2022-09-25T13:08:38.808Z,9.23
2022-09-25T13:09:46.482Z,12.17
2022-09-25T13:10:54.655Z,8.83
2022-09-25T13:12:05.774Z,10.10
2022-09-25T13:13:20.105Z,7.83
2022-09-25T13:14:34.647Z,10.97
2022-09-25T13:15:42.041Z,12.27
2022-09-25T13:16:47.087Z,11.10
2022-09-25T13:17:53.628Z,11.97
2022-09-25T13:19:37.254Z,12.07
2022-09-25T13:20:47.848Z,11.83
2022-09-25T13:21:50.968Z,12.23
2022-09-25T13:22:59.711Z,9.90
2022-09-25T13:24:01.824Z,10.73
2022-09-25T13:25:16.702Z,10.57
2022-09-25T13:26:24.553Z,9.87
2022-09-25T13:27:26.573Z,13.10
2022-09-25T13:28:41.975Z,10.67
2022-09-25T13:29:43.744Z,10.03
2022-09-25T13:31:13.721Z,20.87
2022-09-25T13:32:19.286Z,12.30
2022-09-25T13:33:25.870Z,9.73
2022-09-25T13:34:27.608Z,10.60
2022-09-25T13:35:33.391Z,7.97
2022-09-25T13:36:42.317Z,20.70
2022-09-25T13:37:44.358Z,10.13
2022-09-25T13:39:05.060Z,8.73
2022-09-25T13:40:36.237Z,8.50
2022-09-25T13:41:48.693Z,8.10
2022-09-25T13:42:50.401Z,8.60
2022-09-25T13:44:31.708Z,10.27
2022-09-25T13:45:35.083Z,9.00
2022-09-25T13:46:37.560Z,7.67
2022-09-25T13:48:11.289Z,10.30
2022-09-25T13:49:34.124Z,9.23
2022-09-25T13:51:07.526Z,13.50
2022-09-25T13:52:32.566Z,15.83
2022-09-25T13:54:05.270Z,13.70
2022-09-25T13:55:20.112Z,17.07
2022-09-25T13:56:40.661Z,15.13
2022-09-25T13:58:02.152Z,20.80
2022-09-25T13:59:22.572Z,14.60
2022-09-25T14:00:49.732Z,18.53
2022-09-25T14:02:00.751Z,17.10
2022-09-25T14:03:05.856Z,17.63
2022-09-25T14:04:32.857Z,14.27
2022-09-25T14:05:39.349Z,12.73
2022-09-25T14:06:46.688Z,11.23
2022-09-25T14:07:54.931Z,12.50
2022-09-25T14:09:00.183Z,11.03
2022-09-25T14:10:02.690Z,9.20
2022-09-25T14:11:09.615Z,9.40
2022-09-25T14:12:35.112Z,8.17
2022-09-25T14:13:36.802Z,8.53
2022-09-25T14:14:57.770Z,7.10
2022-09-25T14:16:05.454Z,10.00
2022-09-25T14:17:10.644Z,5.30
2022-09-25T14:18:21.352Z,4.83
2022-09-25T14:19:44.306Z,3.77
2022-09-25T14:20:56.475Z,4.97
2022-09-25T14:22:00.526Z,4.43
2022-09-25T14:23:06.874Z,4.63
2022-09-25T14:24:29.141Z,4.90
2022-09-25T14:25:33.764Z,5.53
2022-09-25T14:26:44.943Z,5.07
2022-09-25T14:27:52.265Z,5.77
2022-09-25T14:28:56.145Z,4.73
2022-09-25T14:30:07.515Z,4.50
2022-09-25T14:31:18.302Z,5.13
2022-09-25T14:32:55.054Z,4.73
2022-09-25T14:34:18.773Z,4.10
2022-09-25T14:35:32.793Z,6.40
2022-09-25T14:37:11.888Z,3.93
2022-09-25T14:38:16.155Z,3.43
2022-09-25T14:39:24.813Z,5.53
2022-09-25T14:40:35.379Z,4.53
2022-09-25T14:41:58.612Z,4.80
2022-09-25T14:43:23.593Z,3.90
2022-09-25T14:44:48.475Z,5.57
2022-09-25T14:46:01.680Z,4.57
2022-09-25T14:47:05.285Z,4.97
2022-09-25T14:48:30.619Z,5.20
2022-09-25T14:49:39.271Z,4.57
2022-09-25T14:50:48.519Z,4.57
2022-09-25T14:51:52.130Z,4.20
2022-09-25T14:53:02.917Z,5.73
2022-09-25T14:54:06.793Z,5.40
2022-09-25T14:55:16.518Z,5.90
2022-09-25T14:56:24.710Z,4.30
2022-09-25T14:57:31.024Z,5.27
2022-09-25T14:58:41.371Z,5.00
2022-09-25T14:59:46.386Z,6.47
2022-09-25T15:00:54.442Z,4.93
2022-09-25T15:01:56.046Z,5.27
2022-09-25T15:02:59.034Z,7.03
2022-09-25T15:04:09.093Z,5.20
2022-09-25T15:05:45.295Z,4.90
2022-09-25T15:06:46.982Z,5.63
2022-09-25T15:07:48.845Z,39.67
2022-09-25T15:08:51.059Z,12.73
2022-09-25T15:09:56.264Z,5.00
2022-09-25T15:11:16.145Z,6.50